sensor_id;sensor_type;location;lat;lon;timestamp;P1;durP1;ratioP1;P2;durP2;ratioP2
59271;SDS011;45043;51.068;7.026;2023-06-24T00:00:06;7.70;;;6.90;;
59271;SDS011;45043;51.068;7.026;2023-06-24T00:03:07;7.73;;;7.03;;
59271;SDS011;45043;51.068;7.026;2023-06-24T00:06:08;7.00;;;6.30;;
59271;SDS011;45043;51.068;7.026;2023-06-24T00:09:09;6.50;;;5.90;;
59271;SDS011;45043;51.068;7.026;2023-06-24T00:12:09;6.13;;;5.63;;
59271;SDS011;45043;51.068;7.026;2023-06-24T00:15:09;7.30;;;6.00;;
59271;SDS011;45043;51.068;7.026;2023-06-24T00:18:10;7.20;;;6.57;;
59271;SDS011;45043;51.068;7.026;2023-06-24T00:21:10;6.67;;;6.07;;
59271;SDS011;45043;51.068;7.026;2023-06-24T00:24:11;6.63;;;6.00;;
59271;SDS011;45043;51.068;7.026;2023-06-24T00:27:11;7.80;;;6.10;;
59271;SDS011;45043;51.068;7.026;2023-06-24T00:30:12;7.00;;;6.40;;
59271;SDS011;45043;51.068;7.026;2023-06-24T00:33:12;9.20;;;6.30;;
59271;SDS011;45043;51.068;7.026;2023-06-24T00:36:13;6.70;;;6.10;;
59271;SDS011;45043;51.068;7.026;2023-06-24T00:39:14;6.73;;;6.03;;
59271;SDS011;45043;51.068;7.026;2023-06-24T00:42:14;5.80;;;5.27;;
59271;SDS011;45043;51.068;7.026;2023-06-24T00:45:14;6.67;;;5.43;;
59271;SDS011;45043;51.068;7.026;2023-06-24T00:48:16;6.03;;;5.43;;
59271;SDS011;45043;51.068;7.026;2023-06-24T00:51:17;6.47;;;5.87;;
59271;SDS011;45043;51.068;7.026;2023-06-24T00:54:21;5.63;;;5.13;;
59271;SDS011;45043;51.068;7.026;2023-06-24T00:57:22;6.20;;;5.60;;
59271;SDS011;45043;51.068;7.026;2023-06-24T01:00:24;6.47;;;5.87;;
59271;SDS011;45043;51.068;7.026;2023-06-24T01:03:26;6.47;;;5.70;;
59271;SDS011;45043;51.068;7.026;2023-06-24T01:06:28;6.13;;;5.57;;
59271;SDS011;45043;51.068;7.026;2023-06-24T01:09:30;6.20;;;5.60;;
59271;SDS011;45043;51.068;7.026;2023-06-24T01:12:31;6.67;;;5.93;;
59271;SDS011;45043;51.068;7.026;2023-06-24T01:15:35;8.23;;;5.53;;
59271;SDS011;45043;51.068;7.026;2023-06-24T01:18:46;7.40;;;5.63;;
59271;SDS011;45043;51.068;7.026;2023-06-24T01:32:07;10.87;;;5.73;;
59271;SDS011;45043;51.068;7.026;2023-06-24T01:35:17;7.00;;;6.30;;
59271;SDS011;45043;51.068;7.026;2023-06-24T01:38:22;6.80;;;5.97;;
59271;SDS011;45043;51.068;7.026;2023-06-24T01:41:27;6.43;;;5.93;;
59271;SDS011;45043;51.068;7.026;2023-06-24T01:44:34;7.27;;;6.10;;
59271;SDS011;45043;51.068;7.026;2023-06-24T01:47:35;6.57;;;5.97;;
59271;SDS011;45043;51.068;7.026;2023-06-24T01:50:37;7.50;;;6.40;;
59271;SDS011;45043;51.068;7.026;2023-06-24T01:53:44;6.60;;;5.87;;
59271;SDS011;45043;51.068;7.026;2023-06-24T01:56:49;7.37;;;6.60;;
59271;SDS011;45043;51.068;7.026;2023-06-24T01:59:55;6.13;;;5.63;;
59271;SDS011;45043;51.068;7.026;2023-06-24T02:02:57;7.43;;;6.50;;
59271;SDS011;45043;51.068;7.026;2023-06-24T02:05:58;9.63;;;5.90;;
59271;SDS011;45043;51.068;7.026;2023-06-24T02:08:59;7.13;;;6.20;;
59271;SDS011;45043;51.068;7.026;2023-06-24T02:12:03;6.50;;;5.90;;
59271;SDS011;45043;51.068;7.026;2023-06-24T02:15:06;6.30;;;5.80;;
59271;SDS011;45043;51.068;7.026;2023-06-24T02:18:09;7.10;;;6.50;;
59271;SDS011;45043;51.068;7.026;2023-06-24T02:21:13;7.77;;;6.03;;
59271;SDS011;45043;51.068;7.026;2023-06-24T02:24:16;6.93;;;6.23;;
59271;SDS011;45043;51.068;7.026;2023-06-24T02:27:16;6.70;;;6.07;;
59271;SDS011;45043;51.068;7.026;2023-06-24T02:30:18;10.53;;;6.60;;
59271;SDS011;45043;51.068;7.026;2023-06-24T02:33:20;6.30;;;5.70;;
59271;SDS011;45043;51.068;7.026;2023-06-24T02:36:21;6.13;;;5.63;;
59271;SDS011;45043;51.068;7.026;2023-06-24T02:39:22;5.90;;;5.40;;
59271;SDS011;45043;51.068;7.026;2023-06-24T02:42:24;8.83;;;6.57;;
59271;SDS011;45043;51.068;7.026;2023-06-24T02:45:24;6.23;;;5.70;;
59271;SDS011;45043;51.068;7.026;2023-06-24T02:48:25;6.03;;;5.53;;
59271;SDS011;45043;51.068;7.026;2023-06-24T02:51:27;7.50;;;6.07;;
59271;SDS011;45043;51.068;7.026;2023-06-24T02:54:29;6.17;;;5.67;;
59271;SDS011;45043;51.068;7.026;2023-06-24T02:57:53;7.33;;;6.47;;
59271;SDS011;45043;51.068;7.026;2023-06-24T03:00:59;7.03;;;6.00;;
59271;SDS011;45043;51.068;7.026;2023-06-24T03:04:11;6.27;;;5.67;;
59271;SDS011;45043;51.068;7.026;2023-06-24T03:07:12;6.27;;;5.67;;
59271;SDS011;45043;51.068;7.026;2023-06-24T03:10:16;6.07;;;5.47;;
59271;SDS011;45043;51.068;7.026;2023-06-24T03:13:17;6.50;;;5.90;;
59271;SDS011;45043;51.068;7.026;2023-06-24T03:16:21;6.33;;;5.83;;
59271;SDS011;45043;51.068;7.026;2023-06-24T03:19:27;7.37;;;6.20;;
59271;SDS011;45043;51.068;7.026;2023-06-24T03:22:28;8.07;;;6.43;;
59271;SDS011;45043;51.068;7.026;2023-06-24T03:25:28;6.87;;;6.03;;
59271;SDS011;45043;51.068;7.026;2023-06-24T03:28:30;6.73;;;6.10;;
59271;SDS011;45043;51.068;7.026;2023-06-24T03:31:41;7.03;;;6.33;;
59271;SDS011;45043;51.068;7.026;2023-06-24T03:34:46;6.63;;;6.03;;
59271;SDS011;45043;51.068;7.026;2023-06-24T03:37:46;8.43;;;6.60;;
59271;SDS011;45043;51.068;7.026;2023-06-24T03:40:47;6.50;;;5.90;;
59271;SDS011;45043;51.068;7.026;2023-06-24T03:43:48;7.60;;;6.90;;
59271;SDS011;45043;51.068;7.026;2023-06-24T03:46:48;6.53;;;6.03;;
59271;SDS011;45043;51.068;7.026;2023-06-24T03:49:49;7.57;;;5.97;;
59271;SDS011;45043;51.068;7.026;2023-06-24T03:52:50;8.20;;;6.20;;
59271;SDS011;45043;51.068;7.026;2023-06-24T03:55:50;6.90;;;6.30;;
59271;SDS011;45043;51.068;7.026;2023-06-24T03:58:51;8.87;;;6.17;;
59271;SDS011;45043;51.068;7.026;2023-06-24T04:01:52;7.27;;;6.57;;
59271;SDS011;45043;51.068;7.026;2023-06-24T04:04:54;6.70;;;6.03;;
59271;SDS011;45043;51.068;7.026;2023-06-24T04:07:56;7.07;;;6.40;;
59271;SDS011;45043;51.068;7.026;2023-06-24T04:10:57;6.83;;;6.23;;
59271;SDS011;45043;51.068;7.026;2023-06-24T04:14:00;7.27;;;6.50;;
59271;SDS011;45043;51.068;7.026;2023-06-24T04:17:00;7.10;;;6.40;;
59271;SDS011;45043;51.068;7.026;2023-06-24T04:20:04;7.13;;;6.30;;
59271;SDS011;45043;51.068;7.026;2023-06-24T04:23:08;7.37;;;6.67;;
59271;SDS011;45043;51.068;7.026;2023-06-24T04:26:11;7.13;;;6.43;;
59271;SDS011;45043;51.068;7.026;2023-06-24T04:29:11;6.73;;;6.03;;
59271;SDS011;45043;51.068;7.026;2023-06-24T04:32:12;7.93;;;7.13;;
59271;SDS011;45043;51.068;7.026;2023-06-24T04:35:13;6.37;;;5.77;;
59271;SDS011;45043;51.068;7.026;2023-06-24T04:38:13;6.93;;;5.63;;
59271;SDS011;45043;51.068;7.026;2023-06-24T04:41:18;6.43;;;5.80;;
59271;SDS011;45043;51.068;7.026;2023-06-24T04:44:19;7.77;;;6.00;;
59271;SDS011;45043;51.068;7.026;2023-06-24T04:47:20;8.57;;;5.77;;
59271;SDS011;45043;51.068;7.026;2023-06-24T04:50:21;8.47;;;6.13;;
59271;SDS011;45043;51.068;7.026;2023-06-24T04:53:21;7.43;;;6.57;;
59271;SDS011;45043;51.068;7.026;2023-06-24T04:56:21;14.47;;;6.77;;
59271;SDS011;45043;51.068;7.026;2023-06-24T04:59:22;8.30;;;6.43;;
59271;SDS011;45043;51.068;7.026;2023-06-24T05:02:23;9.57;;;6.50;;
59271;SDS011;45043;51.068;7.026;2023-06-24T05:05:23;8.50;;;6.53;;
59271;SDS011;45043;51.068;7.026;2023-06-24T05:08:25;8.43;;;6.30;;
59271;SDS011;45043;51.068;7.026;2023-06-24T05:11:26;7.83;;;6.93;;
59271;SDS011;45043;51.068;7.026;2023-06-24T05:14:26;7.10;;;6.27;;
59271;SDS011;45043;51.068;7.026;2023-06-24T05:17:26;7.37;;;6.67;;
59271;SDS011;45043;51.068;7.026;2023-06-24T05:20:27;9.00;;;6.70;;
59271;SDS011;45043;51.068;7.026;2023-06-24T05:23:27;7.10;;;6.40;;
59271;SDS011;45043;51.068;7.026;2023-06-24T05:26:28;6.90;;;6.00;;
59271;SDS011;45043;51.068;7.026;2023-06-24T05:29:28;9.73;;;7.33;;
59271;SDS011;45043;51.068;7.026;2023-06-24T05:32:29;6.60;;;5.90;;
59271;SDS011;45043;51.068;7.026;2023-06-24T05:35:29;7.80;;;7.10;;
59271;SDS011;45043;51.068;7.026;2023-06-24T05:38:29;8.40;;;7.40;;
59271;SDS011;45043;51.068;7.026;2023-06-24T05:41:30;10.17;;;6.87;;
59271;SDS011;45043;51.068;7.026;2023-06-24T05:44:30;6.93;;;6.33;;
59271;SDS011;45043;51.068;7.026;2023-06-24T05:47:31;6.57;;;5.87;;
59271;SDS011;45043;51.068;7.026;2023-06-24T05:50:32;8.87;;;6.20;;
59271;SDS011;45043;51.068;7.026;2023-06-24T05:53:32;7.50;;;6.77;;
59271;SDS011;45043;51.068;7.026;2023-06-24T05:56:32;7.00;;;6.37;;
59271;SDS011;45043;51.068;7.026;2023-06-24T05:59:33;7.40;;;6.70;;
59271;SDS011;45043;51.068;7.026;2023-06-24T06:02:33;7.33;;;6.63;;
59271;SDS011;45043;51.068;7.026;2023-06-24T06:05:34;9.30;;;6.47;;
59271;SDS011;45043;51.068;7.026;2023-06-24T06:08:34;9.53;;;7.30;;
59271;SDS011;45043;51.068;7.026;2023-06-24T06:11:35;7.90;;;7.20;;
59271;SDS011;45043;51.068;7.026;2023-06-24T06:14:35;7.43;;;6.53;;
59271;SDS011;45043;51.068;7.026;2023-06-24T06:17:35;7.90;;;6.33;;
59271;SDS011;45043;51.068;7.026;2023-06-24T06:20:36;6.50;;;5.93;;
59271;SDS011;45043;51.068;7.026;2023-06-24T06:23:36;7.17;;;6.53;;
59271;SDS011;45043;51.068;7.026;2023-06-24T06:26:41;7.33;;;6.73;;
59271;SDS011;45043;51.068;7.026;2023-06-24T06:29:42;7.37;;;6.37;;
59271;SDS011;45043;51.068;7.026;2023-06-24T06:32:43;7.93;;;7.13;;
59271;SDS011;45043;51.068;7.026;2023-06-24T06:35:43;8.33;;;7.30;;
59271;SDS011;45043;51.068;7.026;2023-06-24T06:38:44;8.83;;;7.93;;
59271;SDS011;45043;51.068;7.026;2023-06-24T06:41:44;9.80;;;7.50;;
59271;SDS011;45043;51.068;7.026;2023-06-24T06:44:49;8.33;;;7.37;;
59271;SDS011;45043;51.068;7.026;2023-06-24T06:47:50;10.20;;;9.20;;
59271;SDS011;45043;51.068;7.026;2023-06-24T06:50:50;10.87;;;8.00;;
59271;SDS011;45043;51.068;7.026;2023-06-24T06:53:52;10.93;;;9.93;;
59271;SDS011;45043;51.068;7.026;2023-06-24T06:56:53;10.73;;;9.27;;
59271;SDS011;45043;51.068;7.026;2023-06-24T06:59:53;10.93;;;9.83;;
59271;SDS011;45043;51.068;7.026;2023-06-24T07:02:54;12.77;;;11.50;;
59271;SDS011;45043;51.068;7.026;2023-06-24T07:05:54;10.73;;;9.67;;
59271;SDS011;45043;51.068;7.026;2023-06-24T07:08:55;11.90;;;10.70;;
59271;SDS011;45043;51.068;7.026;2023-06-24T07:11:55;10.63;;;9.50;;
59271;SDS011;45043;51.068;7.026;2023-06-24T07:14:55;13.07;;;11.80;;
59271;SDS011;45043;51.068;7.026;2023-06-24T07:17:56;11.77;;;10.57;;
59271;SDS011;45043;51.068;7.026;2023-06-24T07:20:56;10.43;;;9.07;;
59271;SDS011;45043;51.068;7.026;2023-06-24T07:23:57;12.23;;;11.03;;
59271;SDS011;45043;51.068;7.026;2023-06-24T07:26:57;13.27;;;11.03;;
59271;SDS011;45043;51.068;7.026;2023-06-24T07:29:58;11.33;;;9.67;;
59271;SDS011;45043;51.068;7.026;2023-06-24T07:32:58;12.90;;;11.50;;
59271;SDS011;45043;51.068;7.026;2023-06-24T07:35:59;13.23;;;10.27;;
59271;SDS011;45043;51.068;7.026;2023-06-24T07:38:59;16.40;;;12.47;;
59271;SDS011;45043;51.068;7.026;2023-06-24T07:41:59;12.90;;;11.43;;
59271;SDS011;45043;51.068;7.026;2023-06-24T07:45:00;12.73;;;10.83;;
59271;SDS011;45043;51.068;7.026;2023-06-24T07:48:00;12.60;;;11.30;;
59271;SDS011;45043;51.068;7.026;2023-06-24T07:51:01;13.43;;;12.10;;
59271;SDS011;45043;51.068;7.026;2023-06-24T07:54:02;11.97;;;10.80;;
59271;SDS011;45043;51.068;7.026;2023-06-24T07:57:02;12.40;;;11.00;;
59271;SDS011;45043;51.068;7.026;2023-06-24T08:00:03;14.97;;;11.30;;
59271;SDS011;45043;51.068;7.026;2023-06-24T08:03:13;13.13;;;11.83;;
59271;SDS011;45043;51.068;7.026;2023-06-24T08:06:14;16.33;;;14.73;;
59271;SDS011;45043;51.068;7.026;2023-06-24T08:09:15;14.63;;;12.13;;
59271;SDS011;45043;51.068;7.026;2023-06-24T08:12:17;15.00;;;13.50;;
59271;SDS011;45043;51.068;7.026;2023-06-24T08:15:17;17.70;;;14.40;;
59271;SDS011;45043;51.068;7.026;2023-06-24T08:18:18;15.23;;;13.67;;
59271;SDS011;45043;51.068;7.026;2023-06-24T08:21:18;16.20;;;13.50;;
59271;SDS011;45043;51.068;7.026;2023-06-24T08:24:19;14.20;;;12.70;;
59271;SDS011;45043;51.068;7.026;2023-06-24T08:27:19;23.03;;;20.77;;
59271;SDS011;45043;51.068;7.026;2023-06-24T08:30:22;17.33;;;15.37;;
59271;SDS011;45043;51.068;7.026;2023-06-24T08:33:23;15.83;;;12.63;;
59271;SDS011;45043;51.068;7.026;2023-06-24T08:36:25;13.20;;;11.80;;
59271;SDS011;45043;51.068;7.026;2023-06-24T08:39:27;13.27;;;11.87;;
59271;SDS011;45043;51.068;7.026;2023-06-24T08:42:28;16.63;;;14.67;;
59271;SDS011;45043;51.068;7.026;2023-06-24T08:45:28;15.33;;;11.90;;
59271;SDS011;45043;51.068;7.026;2023-06-24T08:48:30;16.43;;;14.73;;
59271;SDS011;45043;51.068;7.026;2023-06-24T08:51:31;14.50;;;13.00;;
59271;SDS011;45043;51.068;7.026;2023-06-24T08:54:38;15.87;;;14.27;;
59271;SDS011;45043;51.068;7.026;2023-06-24T08:57:40;13.37;;;11.97;;
59271;SDS011;45043;51.068;7.026;2023-06-24T09:00:41;12.30;;;11.00;;
59271;SDS011;45043;51.068;7.026;2023-06-24T09:03:43;15.40;;;12.70;;
59271;SDS011;45043;51.068;7.026;2023-06-24T09:06:43;12.37;;;11.13;;
59271;SDS011;45043;51.068;7.026;2023-06-24T09:09:45;13.13;;;11.73;;
59271;SDS011;45043;51.068;7.026;2023-06-24T09:12:46;12.30;;;11.10;;
59271;SDS011;45043;51.068;7.026;2023-06-24T09:15:55;13.87;;;12.07;;
59271;SDS011;45043;51.068;7.026;2023-06-24T09:18:57;15.87;;;11.80;;
59271;SDS011;45043;51.068;7.026;2023-06-24T09:22:01;13.17;;;11.73;;
59271;SDS011;45043;51.068;7.026;2023-06-24T09:25:03;13.87;;;11.53;;
59271;SDS011;45043;51.068;7.026;2023-06-24T09:28:04;11.70;;;10.50;;
59271;SDS011;45043;51.068;7.026;2023-06-24T09:31:08;12.43;;;9.50;;
59271;SDS011;45043;51.068;7.026;2023-06-24T09:34:12;13.90;;;10.93;;
59271;SDS011;45043;51.068;7.026;2023-06-24T09:37:20;12.07;;;10.67;;
59271;SDS011;45043;51.068;7.026;2023-06-24T09:40:22;13.03;;;11.63;;
59271;SDS011;45043;51.068;7.026;2023-06-24T09:43:24;12.73;;;11.47;;
59271;SDS011;45043;51.068;7.026;2023-06-24T09:46:24;12.23;;;10.10;;
59271;SDS011;45043;51.068;7.026;2023-06-24T09:49:25;13.30;;;10.13;;
59271;SDS011;45043;51.068;7.026;2023-06-24T09:52:25;13.70;;;9.77;;
59271;SDS011;45043;51.068;7.026;2023-06-24T09:55:26;13.27;;;9.13;;
59271;SDS011;45043;51.068;7.026;2023-06-24T09:58:29;11.40;;;8.73;;
59271;SDS011;45043;51.068;7.026;2023-06-24T10:01:32;12.57;;;9.07;;
59271;SDS011;45043;51.068;7.026;2023-06-24T10:04:35;9.53;;;8.53;;
59271;SDS011;45043;51.068;7.026;2023-06-24T10:07:35;11.07;;;9.17;;
59271;SDS011;45043;51.068;7.026;2023-06-24T10:10:36;14.10;;;9.30;;
59271;SDS011;45043;51.068;7.026;2023-06-24T10:13:37;13.37;;;8.37;;
59271;SDS011;45043;51.068;7.026;2023-06-24T10:16:37;11.53;;;9.83;;
59271;SDS011;45043;51.068;7.026;2023-06-24T10:19:39;10.87;;;8.50;;
59271;SDS011;45043;51.068;7.026;2023-06-24T10:22:45;8.90;;;8.00;;
59271;SDS011;45043;51.068;7.026;2023-06-24T10:25:46;12.67;;;7.83;;
59271;SDS011;45043;51.068;7.026;2023-06-24T10:32:21;9.97;;;7.13;;
59271;SDS011;45043;51.068;7.026;2023-06-24T10:35:23;7.83;;;7.13;;
59271;SDS011;45043;51.068;7.026;2023-06-24T10:38:30;8.37;;;6.60;;
59271;SDS011;45043;51.068;7.026;2023-06-24T10:41:30;7.03;;;6.23;;
59271;SDS011;45043;51.068;7.026;2023-06-24T10:44:44;7.77;;;6.67;;
59271;SDS011;45043;51.068;7.026;2023-06-24T10:47:47;9.10;;;6.27;;
59271;SDS011;45043;51.068;7.026;2023-06-24T10:50:49;7.30;;;5.40;;
59271;SDS011;45043;51.068;7.026;2023-06-24T10:53:50;10.37;;;5.27;;
59271;SDS011;45043;51.068;7.026;2023-06-24T10:56:52;5.60;;;4.77;;
59271;SDS011;45043;51.068;7.026;2023-06-24T10:59:54;5.20;;;4.63;;
59271;SDS011;45043;51.068;7.026;2023-06-24T11:02:56;11.20;;;5.70;;
59271;SDS011;45043;51.068;7.026;2023-06-24T11:05:56;6.20;;;5.57;;
59271;SDS011;45043;51.068;7.026;2023-06-24T11:09:01;6.07;;;5.13;;
59271;SDS011;45043;51.068;7.026;2023-06-24T11:12:05;6.77;;;5.70;;
59271;SDS011;45043;51.068;7.026;2023-06-24T11:15:07;6.27;;;4.70;;
59271;SDS011;45043;51.068;7.026;2023-06-24T11:18:11;6.10;;;5.50;;
59271;SDS011;45043;51.068;7.026;2023-06-24T11:21:11;7.17;;;5.50;;
59271;SDS011;45043;51.068;7.026;2023-06-24T11:24:12;5.90;;;5.20;;
59271;SDS011;45043;51.068;7.026;2023-06-24T11:27:12;5.10;;;4.60;;
59271;SDS011;45043;51.068;7.026;2023-06-24T11:30:13;8.07;;;5.97;;
59271;SDS011;45043;51.068;7.026;2023-06-24T11:33:26;8.53;;;5.93;;
59271;SDS011;45043;51.068;7.026;2023-06-24T11:36:28;6.10;;;4.40;;
59271;SDS011;45043;51.068;7.026;2023-06-24T11:39:29;5.83;;;4.30;;
59271;SDS011;45043;51.068;7.026;2023-06-24T11:42:35;6.17;;;3.87;;
59271;SDS011;45043;51.068;7.026;2023-06-24T11:45:37;5.00;;;3.93;;
59271;SDS011;45043;51.068;7.026;2023-06-24T11:48:40;4.37;;;3.73;;
59271;SDS011;45043;51.068;7.026;2023-06-24T11:51:50;5.93;;;3.97;;
59271;SDS011;45043;51.068;7.026;2023-06-24T11:54:58;10.73;;;9.47;;
59271;SDS011;45043;51.068;7.026;2023-06-24T11:58:18;5.83;;;4.60;;
59271;SDS011;45043;51.068;7.026;2023-06-24T12:01:20;7.47;;;5.37;;
59271;SDS011;45043;51.068;7.026;2023-06-24T12:04:35;3.63;;;3.13;;
59271;SDS011;45043;51.068;7.026;2023-06-24T12:07:40;4.53;;;4.13;;
59271;SDS011;45043;51.068;7.026;2023-06-24T12:10:43;4.77;;;3.60;;
59271;SDS011;45043;51.068;7.026;2023-06-24T12:13:58;6.37;;;5.00;;
59271;SDS011;45043;51.068;7.026;2023-06-24T12:17:01;4.33;;;3.93;;
59271;SDS011;45043;51.068;7.026;2023-06-24T12:20:02;4.43;;;4.00;;
59271;SDS011;45043;51.068;7.026;2023-06-24T12:23:03;4.80;;;4.10;;
59271;SDS011;45043;51.068;7.026;2023-06-24T12:26:03;4.30;;;3.93;;
59271;SDS011;45043;51.068;7.026;2023-06-24T12:29:06;4.57;;;3.97;;
59271;SDS011;45043;51.068;7.026;2023-06-24T12:32:07;5.27;;;4.20;;
59271;SDS011;45043;51.068;7.026;2023-06-24T12:35:10;5.03;;;4.13;;
59271;SDS011;45043;51.068;7.026;2023-06-24T12:38:10;4.80;;;4.30;;
59271;SDS011;45043;51.068;7.026;2023-06-24T12:41:11;4.03;;;3.63;;
59271;SDS011;45043;51.068;7.026;2023-06-24T12:44:11;4.70;;;3.53;;
59271;SDS011;45043;51.068;7.026;2023-06-24T12:47:12;7.70;;;3.90;;
59271;SDS011;45043;51.068;7.026;2023-06-24T12:50:12;4.50;;;3.63;;
59271;SDS011;45043;51.068;7.026;2023-06-24T12:53:13;4.03;;;3.63;;
59271;SDS011;45043;51.068;7.026;2023-06-24T12:56:15;4.73;;;3.80;;
59271;SDS011;45043;51.068;7.026;2023-06-24T12:59:16;5.90;;;3.73;;
59271;SDS011;45043;51.068;7.026;2023-06-24T13:02:16;5.43;;;4.10;;
59271;SDS011;45043;51.068;7.026;2023-06-24T13:05:17;3.83;;;3.53;;
59271;SDS011;45043;51.068;7.026;2023-06-24T13:08:18;4.95;;;4.40;;
59271;SDS011;45043;51.068;7.026;2023-06-24T13:11:18;5.70;;;4.00;;
59271;SDS011;45043;51.068;7.026;2023-06-24T13:14:18;5.43;;;4.10;;
59271;SDS011;45043;51.068;7.026;2023-06-24T13:17:19;6.30;;;4.15;;
59271;SDS011;45043;51.068;7.026;2023-06-24T13:20:19;4.60;;;3.90;;
59271;SDS011;45043;51.068;7.026;2023-06-24T13:23:20;4.57;;;4.18;;
59271;SDS011;45043;51.068;7.026;2023-06-24T13:26:20;4.72;;;4.20;;
59271;SDS011;45043;51.068;7.026;2023-06-24T13:29:21;4.10;;;3.70;;
59271;SDS011;45043;51.068;7.026;2023-06-24T13:32:21;4.13;;;3.75;;
59271;SDS011;45043;51.068;7.026;2023-06-24T13:35:23;4.68;;;3.97;;
59271;SDS011;45043;51.068;7.026;2023-06-24T13:38:23;5.95;;;4.22;;
59271;SDS011;45043;51.068;7.026;2023-06-24T13:41:24;4.68;;;4.28;;
59271;SDS011;45043;51.068;7.026;2023-06-24T13:44:27;6.53;;;4.13;;
59271;SDS011;45043;51.068;7.026;2023-06-24T13:47:27;4.47;;;4.05;;
59271;SDS011;45043;51.068;7.026;2023-06-24T13:50:28;5.53;;;4.45;;
59271;SDS011;45043;51.068;7.026;2023-06-24T13:53:29;5.32;;;3.78;;
59271;SDS011;45043;51.068;7.026;2023-06-24T13:56:29;6.13;;;4.10;;
59271;SDS011;45043;51.068;7.026;2023-06-24T13:59:30;4.55;;;4.15;;
59271;SDS011;45043;51.068;7.026;2023-06-24T14:02:30;4.30;;;3.60;;
59271;SDS011;45043;51.068;7.026;2023-06-24T14:05:31;3.95;;;3.58;;
59271;SDS011;45043;51.068;7.026;2023-06-24T14:08:31;6.18;;;5.00;;
59271;SDS011;45043;51.068;7.026;2023-06-24T14:11:32;7.03;;;4.72;;
59271;SDS011;45043;51.068;7.026;2023-06-24T14:14:34;10.23;;;6.13;;
59271;SDS011;45043;51.068;7.026;2023-06-24T14:17:36;4.05;;;3.65;;
59271;SDS011;45043;51.068;7.026;2023-06-24T14:20:37;3.65;;;3.35;;
59271;SDS011;45043;51.068;7.026;2023-06-24T14:23:37;4.72;;;3.55;;
59271;SDS011;45043;51.068;7.026;2023-06-24T14:26:41;3.53;;;3.17;;
59271;SDS011;45043;51.068;7.026;2023-06-24T14:29:49;4.03;;;3.63;;
59271;SDS011;45043;51.068;7.026;2023-06-24T14:32:49;4.65;;;3.30;;
59271;SDS011;45043;51.068;7.026;2023-06-24T14:35:50;5.13;;;3.55;;
59271;SDS011;45043;51.068;7.026;2023-06-24T14:38:51;4.10;;;3.20;;
59271;SDS011;45043;51.068;7.026;2023-06-24T14:41:51;8.70;;;7.80;;
59271;SDS011;45043;51.068;7.026;2023-06-24T14:44:55;6.55;;;5.30;;
59271;SDS011;45043;51.068;7.026;2023-06-24T14:47:55;5.57;;;4.38;;
59271;SDS011;45043;51.068;7.026;2023-06-24T14:50:57;3.90;;;3.60;;
59271;SDS011;45043;51.068;7.026;2023-06-24T14:53:57;8.45;;;7.60;;
59271;SDS011;45043;51.068;7.026;2023-06-24T14:56:57;3.50;;;3.20;;
59271;SDS011;45043;51.068;7.026;2023-06-24T14:59:58;4.10;;;3.50;;
59271;SDS011;45043;51.068;7.026;2023-06-24T15:02:58;4.43;;;4.03;;
59271;SDS011;45043;51.068;7.026;2023-06-24T15:05:59;4.10;;;3.47;;
59271;SDS011;45043;51.068;7.026;2023-06-24T15:08:59;7.07;;;6.43;;
59271;SDS011;45043;51.068;7.026;2023-06-24T15:12:00;7.05;;;6.30;;
59271;SDS011;45043;51.068;7.026;2023-06-24T15:15:01;7.40;;;6.65;;
59271;SDS011;45043;51.068;7.026;2023-06-24T15:18:02;4.80;;;4.22;;
59271;SDS011;45043;51.068;7.026;2023-06-24T15:21:02;4.70;;;4.30;;
59271;SDS011;45043;51.068;7.026;2023-06-24T15:24:03;3.70;;;3.40;;
59271;SDS011;45043;51.068;7.026;2023-06-24T15:27:04;4.45;;;3.63;;
59271;SDS011;45043;51.068;7.026;2023-06-24T15:30:04;3.58;;;3.28;;
59271;SDS011;45043;51.068;7.026;2023-06-24T15:33:05;3.90;;;3.50;;
59271;SDS011;45043;51.068;7.026;2023-06-24T15:36:05;3.95;;;3.20;;
59271;SDS011;45043;51.068;7.026;2023-06-24T15:39:06;3.50;;;3.20;;
59271;SDS011;45043;51.068;7.026;2023-06-24T15:42:06;3.67;;;3.33;;
59271;SDS011;45043;51.068;7.026;2023-06-24T15:45:07;4.00;;;3.70;;
59271;SDS011;45043;51.068;7.026;2023-06-24T15:48:07;7.13;;;6.45;;
59271;SDS011;45043;51.068;7.026;2023-06-24T15:51:08;11.75;;;10.75;;
59271;SDS011;45043;51.068;7.026;2023-06-24T15:54:08;5.85;;;5.35;;
59271;SDS011;45043;51.068;7.026;2023-06-24T15:57:09;4.72;;;4.32;;
59271;SDS011;45043;51.068;7.026;2023-06-24T16:00:09;4.03;;;2.92;;
59271;SDS011;45043;51.068;7.026;2023-06-24T16:03:13;3.30;;;2.90;;
59271;SDS011;45043;51.068;7.026;2023-06-24T16:06:13;3.95;;;3.30;;
59271;SDS011;45043;51.068;7.026;2023-06-24T16:09:14;3.00;;;2.70;;
59271;SDS011;45043;51.068;7.026;2023-06-24T16:12:14;3.45;;;2.78;;
59271;SDS011;45043;51.068;7.026;2023-06-24T16:15:17;3.92;;;2.67;;
59271;SDS011;45043;51.068;7.026;2023-06-24T16:18:17;3.35;;;3.05;;
59271;SDS011;45043;51.068;7.026;2023-06-24T16:21:17;3.08;;;2.85;;
59271;SDS011;45043;51.068;7.026;2023-06-24T16:24:18;3.70;;;2.85;;
59271;SDS011;45043;51.068;7.026;2023-06-24T16:27:18;2.85;;;2.63;;
59271;SDS011;45043;51.068;7.026;2023-06-24T16:30:19;3.63;;;2.60;;
59271;SDS011;45043;51.068;7.026;2023-06-24T16:33:21;2.83;;;2.63;;
59271;SDS011;45043;51.068;7.026;2023-06-24T16:36:22;6.30;;;2.83;;
59271;SDS011;45043;51.068;7.026;2023-06-24T16:39:26;2.92;;;2.70;;
59271;SDS011;45043;51.068;7.026;2023-06-24T16:42:26;2.95;;;2.63;;
59271;SDS011;45043;51.068;7.026;2023-06-24T16:45:26;3.22;;;2.92;;
59271;SDS011;45043;51.068;7.026;2023-06-24T16:48:27;4.80;;;4.40;;
59271;SDS011;45043;51.068;7.026;2023-06-24T16:51:27;5.32;;;5.03;;
59271;SDS011;45043;51.068;7.026;2023-06-24T16:54:27;5.50;;;5.20;;
59271;SDS011;45043;51.068;7.026;2023-06-24T16:57:28;4.85;;;4.55;;
59271;SDS011;45043;51.068;7.026;2023-06-24T17:00:28;4.60;;;4.30;;
59271;SDS011;45043;51.068;7.026;2023-06-24T17:03:29;5.00;;;4.70;;
59271;SDS011;45043;51.068;7.026;2023-06-24T17:06:29;5.03;;;4.63;;
59271;SDS011;45043;51.068;7.026;2023-06-24T17:09:29;9.30;;;8.60;;
59271;SDS011;45043;51.068;7.026;2023-06-24T17:12:30;23.67;;;21.15;;
59271;SDS011;45043;51.068;7.026;2023-06-24T17:15:30;6.43;;;6.03;;
59271;SDS011;45043;51.068;7.026;2023-06-24T17:18:31;4.13;;;3.85;;
59271;SDS011;45043;51.068;7.026;2023-06-24T17:21:32;4.75;;;4.45;;
59271;SDS011;45043;51.068;7.026;2023-06-24T17:24:32;4.78;;;4.47;;
59271;SDS011;45043;51.068;7.026;2023-06-24T17:27:34;4.40;;;4.20;;
59271;SDS011;45043;51.068;7.026;2023-06-24T17:30:34;4.80;;;4.40;;
59271;SDS011;45043;51.068;7.026;2023-06-24T17:33:34;4.90;;;4.60;;
59271;SDS011;45043;51.068;7.026;2023-06-24T17:36:35;4.68;;;4.38;;
59271;SDS011;45043;51.068;7.026;2023-06-24T17:39:35;4.63;;;4.22;;
59271;SDS011;45043;51.068;7.026;2023-06-24T17:42:36;4.13;;;3.92;;
59271;SDS011;45043;51.068;7.026;2023-06-24T17:45:36;5.60;;;5.20;;
59271;SDS011;45043;51.068;7.026;2023-06-24T17:48:36;5.32;;;5.03;;
59271;SDS011;45043;51.068;7.026;2023-06-24T17:51:37;5.18;;;4.78;;
59271;SDS011;45043;51.068;7.026;2023-06-24T17:54:37;4.72;;;4.43;;
59271;SDS011;45043;51.068;7.026;2023-06-24T17:57:37;4.75;;;4.45;;
59271;SDS011;45043;51.068;7.026;2023-06-24T18:00:38;4.80;;;4.50;;
59271;SDS011;45043;51.068;7.026;2023-06-24T18:03:41;4.45;;;4.15;;
59271;SDS011;45043;51.068;7.026;2023-06-24T18:06:41;3.97;;;3.78;;
59271;SDS011;45043;51.068;7.026;2023-06-24T18:09:42;12.88;;;11.98;;
59271;SDS011;45043;51.068;7.026;2023-06-24T18:12:42;13.70;;;12.73;;
59271;SDS011;45043;51.068;7.026;2023-06-24T18:15:42;6.13;;;5.72;;
59271;SDS011;45043;51.068;7.026;2023-06-24T18:18:43;4.72;;;4.43;;
59271;SDS011;45043;51.068;7.026;2023-06-24T18:21:43;4.07;;;3.78;;